sensor_id;sensor_type;location;lat;lon;timestamp;noise_LAeq;noise_LA_min;noise_LA_max;noise_LA01;noise_LA95
81666;Laerm;71083;51.796;10.952;2023-09-30T00:02:24;53.82;31.33;70.14;;
81666;Laerm;71083;51.796;10.952;2023-09-30T00:04:50;49.78;31.45;70.03;;
81666;Laerm;71083;51.796;10.952;2023-09-30T00:07:15;40.76;34.89;50.02;;
81666;Laerm;71083;51.796;10.952;2023-09-30T00:09:41;60.38;34.79;73.60;;
81666;Laerm;71083;51.796;10.952;2023-09-30T00:12:06;55.09;34.66;69.52;;
81666;Laerm;71083;51.796;10.952;2023-09-30T00:14:32;62.86;33.76;76.70;;
81666;Laerm;71083;51.796;10.952;2023-09-30T00:16:57;35.67;31.27;40.51;;
81666;Laerm;71083;51.796;10.952;2023-09-30T00:19:22;33.55;31.23;41.60;;
81666;Laerm;71083;51.796;10.952;2023-09-30T00:21:48;51.27;31.14;66.65;;
81666;Laerm;71083;51.796;10.952;2023-09-30T00:24:13;58.26;32.16;75.76;;
81666;Laerm;71083;51.796;10.952;2023-09-30T00:26:39;58.81;32.77;74.06;;
81666;Laerm;71083;51.796;10.952;2023-09-30T00:29:04;56.38;31.05;74.39;;
81666;Laerm;71083;51.796;10.952;2023-09-30T00:31:30;61.42;33.12;79.29;;
81666;Laerm;71083;51.796;10.952;2023-09-30T00:33:55;37.24;33.15;48.15;;
81666;Laerm;71083;51.796;10.952;2023-09-30T00:36:21;55.62;30.81;73.82;;
81666;Laerm;71083;51.796;10.952;2023-09-30T00:38:46;57.60;32.53;71.38;;
81666;Laerm;71083;51.796;10.952;2023-09-30T00:41:11;56.24;30.94;70.51;;
81666;Laerm;71083;51.796;10.952;2023-09-30T00:43:37;38.36;30.11;52.09;;
81666;Laerm;71083;51.796;10.952;2023-09-30T00:46:04;57.87;30.41;75.27;;
81666;Laerm;71083;51.796;10.952;2023-09-30T00:48:32;33.64;30.55;37.88;;
81666;Laerm;71083;51.796;10.952;2023-09-30T00:50:58;59.18;32.13;74.26;;
81666;Laerm;71083;51.796;10.952;2023-09-30T00:53:23;56.79;31.40;74.51;;
81666;Laerm;71083;51.796;10.952;2023-09-30T00:55:49;54.24;28.96;69.63;;
81666;Laerm;71083;51.796;10.952;2023-09-30T00:58:15;34.71;29.28;51.67;;
81666;Laerm;71083;51.796;10.952;2023-09-30T01:00:41;57.67;30.04;71.98;;
81666;Laerm;71083;51.796;10.952;2023-09-30T01:03:07;53.09;29.46;68.18;;
81666;Laerm;71083;51.796;10.952;2023-09-30T01:05:32;55.87;30.41;69.84;;
81666;Laerm;71083;51.796;10.952;2023-09-30T01:07:59;59.56;31.53;74.00;;
81666;Laerm;71083;51.796;10.952;2023-09-30T01:10:26;33.17;29.52;39.71;;
81666;Laerm;71083;51.796;10.952;2023-09-30T01:12:52;62.84;32.25;77.28;;
81666;Laerm;71083;51.796;10.952;2023-09-30T01:15:18;33.40;30.06;47.96;;
81666;Laerm;71083;51.796;10.952;2023-09-30T01:17:43;57.45;29.88;74.24;;
81666;Laerm;71083;51.796;10.952;2023-09-30T01:20:09;32.82;30.02;38.00;;
81666;Laerm;71083;51.796;10.952;2023-09-30T01:22:41;35.42;31.03;46.19;;
81666;Laerm;71083;51.796;10.952;2023-09-30T01:25:06;34.36;29.84;45.72;;
81666;Laerm;71083;51.796;10.952;2023-09-30T01:27:34;34.85;30.26;41.93;;
81666;Laerm;71083;51.796;10.952;2023-09-30T01:30:00;56.34;30.32;71.75;;
81666;Laerm;71083;51.796;10.952;2023-09-30T01:32:25;51.33;30.59;70.10;;
81666;Laerm;71083;51.796;10.952;2023-09-30T01:34:51;56.62;29.07;72.81;;
81666;Laerm;71083;51.796;10.952;2023-09-30T01:37:16;56.59;29.14;72.65;;
81666;Laerm;71083;51.796;10.952;2023-09-30T01:39:41;34.80;30.00;47.24;;
81666;Laerm;71083;51.796;10.952;2023-09-30T01:42:07;36.37;30.52;55.32;;
81666;Laerm;71083;51.796;10.952;2023-09-30T01:44:32;53.65;30.97;71.27;;
81666;Laerm;71083;51.796;10.952;2023-09-30T01:46:57;33.41;31.06;44.88;;
81666;Laerm;71083;51.796;10.952;2023-09-30T01:49:23;59.88;30.52;77.79;;
81666;Laerm;71083;51.796;10.952;2023-09-30T01:51:49;54.54;30.57;71.64;;
81666;Laerm;71083;51.796;10.952;2023-09-30T01:54:14;32.80;29.87;36.53;;
81666;Laerm;71083;51.796;10.952;2023-09-30T01:56:40;55.01;29.85;69.62;;
81666;Laerm;71083;51.796;10.952;2023-09-30T01:59:05;54.89;30.44;71.03;;
81666;Laerm;71083;51.796;10.952;2023-09-30T02:01:30;55.45;29.56;71.98;;
81666;Laerm;71083;51.796;10.952;2023-09-30T02:03:56;55.47;29.63;72.29;;
81666;Laerm;71083;51.796;10.952;2023-09-30T02:06:21;61.55;31.61;78.98;;
81666;Laerm;71083;51.796;10.952;2023-09-30T02:08:46;51.97;30.89;68.78;;
81666;Laerm;71083;51.796;10.952;2023-09-30T02:11:12;60.12;30.73;74.28;;
81666;Laerm;71083;51.796;10.952;2023-09-30T02:13:38;56.99;31.44;71.48;;
81666;Laerm;71083;51.796;10.952;2023-09-30T02:16:05;52.45;29.27;68.44;;
81666;Laerm;71083;51.796;10.952;2023-09-30T02:18:30;39.23;30.15;57.20;;
81666;Laerm;71083;51.796;10.952;2023-09-30T02:20:58;62.15;31.66;79.16;;
81666;Laerm;71083;51.796;10.952;2023-09-30T02:23:24;52.40;29.87;67.05;;
81666;Laerm;71083;51.796;10.952;2023-09-30T02:25:50;60.13;31.43;83.84;;
81666;Laerm;71083;51.796;10.952;2023-09-30T02:28:15;51.82;31.37;67.00;;
81666;Laerm;71083;51.796;10.952;2023-09-30T02:30:40;61.83;29.44;80.69;;
81666;Laerm;71083;51.796;10.952;2023-09-30T02:33:06;59.33;30.12;75.36;;
81666;Laerm;71083;51.796;10.952;2023-09-30T02:35:32;41.16;29.38;54.11;;
81666;Laerm;71083;51.796;10.952;2023-09-30T02:37:57;55.07;29.58;67.38;;
81666;Laerm;71083;51.796;10.952;2023-09-30T02:40:24;36.06;30.33;46.57;;
81666;Laerm;71083;51.796;10.952;2023-09-30T02:42:50;40.14;30.36;49.35;;
81666;Laerm;71083;51.796;10.952;2023-09-30T02:45:16;64.12;31.62;79.13;;
81666;Laerm;71083;51.796;10.952;2023-09-30T02:47:45;53.62;30.26;71.46;;
81666;Laerm;71083;51.796;10.952;2023-09-30T02:50:10;54.89;31.70;68.63;;
81666;Laerm;71083;51.796;10.952;2023-09-30T02:52:39;32.63;30.01;39.97;;
81666;Laerm;71083;51.796;10.952;2023-09-30T02:55:06;57.18;29.19;71.70;;
81666;Laerm;71083;51.796;10.952;2023-09-30T02:57:32;58.15;30.30;70.83;;
81666;Laerm;71083;51.796;10.952;2023-09-30T02:59:58;58.51;31.81;69.31;;
81666;Laerm;71083;51.796;10.952;2023-09-30T03:02:25;47.38;30.12;62.55;;
81666;Laerm;71083;51.796;10.952;2023-09-30T03:04:51;62.72;30.91;76.92;;
81666;Laerm;71083;51.796;10.952;2023-09-30T03:07:18;56.63;30.53;71.08;;
81666;Laerm;71083;51.796;10.952;2023-09-30T03:09:44;62.56;29.51;78.14;;
81666;Laerm;71083;51.796;10.952;2023-09-30T03:12:09;62.22;29.92;76.05;;
81666;Laerm;71083;51.796;10.952;2023-09-30T03:14:35;61.43;30.78;73.85;;
81666;Laerm;71083;51.796;10.952;2023-09-30T03:17:00;61.89;35.04;73.91;;
81666;Laerm;71083;51.796;10.952;2023-09-30T03:19:26;60.17;32.10;71.72;;
81666;Laerm;71083;51.796;10.952;2023-09-30T03:21:51;61.57;29.68;76.59;;
81666;Laerm;71083;51.796;10.952;2023-09-30T03:24:17;58.23;30.41;71.03;;
81666;Laerm;71083;51.796;10.952;2023-09-30T03:26:42;56.82;32.14;70.82;;
81666;Laerm;71083;51.796;10.952;2023-09-30T03:29:08;62.62;37.73;76.68;;
81666;Laerm;71083;51.796;10.952;2023-09-30T03:31:34;60.88;29.49;73.10;;
81666;Laerm;71083;51.796;10.952;2023-09-30T03:34:00;61.76;33.25;75.34;;
81666;Laerm;71083;51.796;10.952;2023-09-30T03:36:25;59.38;32.74;71.52;;
81666;Laerm;71083;51.796;10.952;2023-09-30T03:38:53;62.26;30.50;75.63;;
81666;Laerm;71083;51.796;10.952;2023-09-30T03:41:19;57.72;30.19;72.02;;
81666;Laerm;71083;51.796;10.952;2023-09-30T03:43:45;57.10;31.06;70.95;;
81666;Laerm;71083;51.796;10.952;2023-09-30T03:46:10;61.78;31.68;74.30;;
81666;Laerm;71083;51.796;10.952;2023-09-30T03:48:37;55.74;32.72;69.08;;
81666;Laerm;71083;51.796;10.952;2023-09-30T03:51:10;64.14;34.09;77.78;;
81666;Laerm;71083;51.796;10.952;2023-09-30T03:53:39;60.02;30.10;73.41;;
81666;Laerm;71083;51.796;10.952;2023-09-30T03:56:05;62.06;34.30;74.64;;
81666;Laerm;71083;51.796;10.952;2023-09-30T03:58:31;56.51;30.45;73.96;;
81666;Laerm;71083;51.796;10.952;2023-09-30T04:00:57;60.52;30.72;72.24;;
81666;Laerm;71083;51.796;10.952;2023-09-30T04:03:23;53.64;32.38;71.37;;
81666;Laerm;71083;51.796;10.952;2023-09-30T04:05:48;64.25;32.03;82.55;;
81666;Laerm;71083;51.796;10.952;2023-09-30T04:08:15;54.21;30.25;71.28;;
81666;Laerm;71083;51.796;10.952;2023-09-30T04:10:42;56.37;30.42;69.03;;
81666;Laerm;71083;51.796;10.952;2023-09-30T04:13:09;59.24;33.65;73.41;;
81666;Laerm;71083;51.796;10.952;2023-09-30T04:15:34;58.94;31.80;71.50;;
81666;Laerm;71083;51.796;10.952;2023-09-30T04:18:00;56.44;31.45;71.80;;
81666;Laerm;71083;51.796;10.952;2023-09-30T04:20:26;49.18;31.98;62.35;;
81666;Laerm;71083;51.796;10.952;2023-09-30T04:22:52;60.25;32.96;75.71;;
81666;Laerm;71083;51.796;10.952;2023-09-30T04:25:22;53.24;33.29;69.00;;
81666;Laerm;71083;51.796;10.952;2023-09-30T04:27:49;61.32;31.16;73.88;;
81666;Laerm;71083;51.796;10.952;2023-09-30T04:30:15;62.37;35.42;73.85;;
81666;Laerm;71083;51.796;10.952;2023-09-30T04:32:40;59.40;36.45;74.35;;
81666;Laerm;71083;51.796;10.952;2023-09-30T04:35:06;62.76;32.85;72.49;;
81666;Laerm;71083;51.796;10.952;2023-09-30T04:37:33;64.55;32.64;82.37;;
81666;Laerm;71083;51.796;10.952;2023-09-30T04:39:59;59.96;32.78;70.73;;
81666;Laerm;71083;51.796;10.952;2023-09-30T04:42:24;62.49;34.42;75.23;;
81666;Laerm;71083;51.796;10.952;2023-09-30T04:44:51;60.93;32.87;72.84;;
81666;Laerm;71083;51.796;10.952;2023-09-30T04:47:16;65.64;37.95;75.82;;
81666;Laerm;71083;51.796;10.952;2023-09-30T04:49:43;60.66;31.53;78.21;;
81666;Laerm;71083;51.796;10.952;2023-09-30T04:52:09;62.10;34.49;74.31;;
81666;Laerm;71083;51.796;10.952;2023-09-30T04:54:34;61.93;32.94;72.71;;
81666;Laerm;71083;51.796;10.952;2023-09-30T04:57:00;58.86;35.68;71.99;;
81666;Laerm;71083;51.796;10.952;2023-09-30T04:59:26;62.86;34.22;77.32;;
81666;Laerm;71083;51.796;10.952;2023-09-30T05:01:51;62.58;32.58;73.63;;
81666;Laerm;71083;51.796;10.952;2023-09-30T05:04:16;61.12;32.11;75.95;;
81666;Laerm;71083;51.796;10.952;2023-09-30T05:06:42;63.49;31.59;74.58;;
81666;Laerm;71083;51.796;10.952;2023-09-30T05:09:07;63.40;34.93;77.53;;
81666;Laerm;71083;51.796;10.952;2023-09-30T05:11:33;63.14;34.45;74.54;;
81666;Laerm;71083;51.796;10.952;2023-09-30T05:14:00;61.34;32.50;72.69;;
81666;Laerm;71083;51.796;10.952;2023-09-30T05:16:25;62.98;33.32;74.35;;
81666;Laerm;71083;51.796;10.952;2023-09-30T05:18:52;63.20;37.76;75.54;;
81666;Laerm;71083;51.796;10.952;2023-09-30T05:21:17;65.93;34.43;77.64;;
81666;Laerm;71083;51.796;10.952;2023-09-30T05:23:42;63.34;35.91;76.45;;
81666;Laerm;71083;51.796;10.952;2023-09-30T05:26:08;61.94;36.42;76.37;;
81666;Laerm;71083;51.796;10.952;2023-09-30T05:28:33;68.65;41.50;85.35;;
81666;Laerm;71083;51.796;10.952;2023-09-30T05:30:59;64.57;43.24;76.67;;
81666;Laerm;71083;51.796;10.952;2023-09-30T05:33:25;63.61;36.03;74.74;;
81666;Laerm;71083;51.796;10.952;2023-09-30T05:35:52;61.75;35.15;72.07;;
81666;Laerm;71083;51.796;10.952;2023-09-30T05:38:18;61.01;34.17;72.68;;
81666;Laerm;71083;51.796;10.952;2023-09-30T05:40:45;63.38;38.16;75.19;;
81666;Laerm;71083;51.796;10.952;2023-09-30T05:43:10;61.00;36.41;73.39;;
81666;Laerm;71083;51.796;10.952;2023-09-30T05:45:38;64.98;38.05;76.62;;
81666;Laerm;71083;51.796;10.952;2023-09-30T05:48:05;65.09;40.40;77.81;;
81666;Laerm;71083;51.796;10.952;2023-09-30T05:50:34;62.11;37.06;73.23;;
81666;Laerm;71083;51.796;10.952;2023-09-30T05:53:01;63.63;36.75;73.94;;
81666;Laerm;71083;51.796;10.952;2023-09-30T05:55:27;62.90;37.26;75.91;;
81666;Laerm;71083;51.796;10.952;2023-09-30T05:57:52;63.56;38.19;74.82;;
81666;Laerm;71083;51.796;10.952;2023-09-30T06:00:19;64.54;38.35;74.93;;
81666;Laerm;71083;51.796;10.952;2023-09-30T06:02:50;66.65;40.36;81.28;;
81666;Laerm;71083;51.796;10.952;2023-09-30T06:05:16;62.52;45.39;74.45;;
81666;Laerm;71083;51.796;10.952;2023-09-30T06:07:44;65.27;36.03;77.21;;
81666;Laerm;71083;51.796;10.952;2023-09-30T06:10:10;64.58;36.97;77.81;;
81666;Laerm;71083;51.796;10.952;2023-09-30T06:12:35;63.60;37.28;78.22;;
81666;Laerm;71083;51.796;10.952;2023-09-30T06:15:01;66.16;37.30;78.87;;
81666;Laerm;71083;51.796;10.952;2023-09-30T06:17:32;64.91;32.68;74.67;;
81666;Laerm;71083;51.796;10.952;2023-09-30T06:19:59;65.35;41.77;77.84;;
81666;Laerm;71083;51.796;10.952;2023-09-30T06:22:33;64.95;41.25;75.53;;
81666;Laerm;71083;51.796;10.952;2023-09-30T06:24:58;66.28;42.14;75.07;;
81666;Laerm;71083;51.796;10.952;2023-09-30T06:27:24;64.88;42.07;75.18;;
81666;Laerm;71083;51.796;10.952;2023-09-30T06:29:49;66.47;37.79;76.95;;
81666;Laerm;71083;51.796;10.952;2023-09-30T06:32:14;68.67;48.23;81.08;;
81666;Laerm;71083;51.796;10.952;2023-09-30T06:34:40;65.61;43.12;74.91;;
81666;Laerm;71083;51.796;10.952;2023-09-30T06:37:06;64.09;37.55;74.71;;
81666;Laerm;71083;51.796;10.952;2023-09-30T06:39:31;65.16;39.59;74.34;;
81666;Laerm;71083;51.796;10.952;2023-09-30T06:41:56;67.78;41.29;77.22;;
81666;Laerm;71083;51.796;10.952;2023-09-30T06:44:22;64.98;44.26;74.28;;
81666;Laerm;71083;51.796;10.952;2023-09-30T06:46:50;68.08;47.55;76.78;;
81666;Laerm;71083;51.796;10.952;2023-09-30T06:49:15;66.85;40.83;75.27;;
81666;Laerm;71083;51.796;10.952;2023-09-30T06:51:41;66.64;40.98;76.15;;
81666;Laerm;71083;51.796;10.952;2023-09-30T06:54:06;66.43;38.56;78.19;;
81666;Laerm;71083;51.796;10.952;2023-09-30T06:56:31;66.08;49.80;76.31;;
81666;Laerm;71083;51.796;10.952;2023-09-30T06:58:57;68.12;48.19;75.81;;
81666;Laerm;71083;51.796;10.952;2023-09-30T07:01:23;67.15;47.07;75.66;;
81666;Laerm;71083;51.796;10.952;2023-09-30T07:03:48;67.15;50.03;77.25;;
81666;Laerm;71083;51.796;10.952;2023-09-30T07:06:21;65.32;42.79;75.05;;
81666;Laerm;71083;51.796;10.952;2023-09-30T07:08:46;68.19;51.86;74.66;;
81666;Laerm;71083;51.796;10.952;2023-09-30T07:11:12;64.47;45.38;75.47;;
81666;Laerm;71083;51.796;10.952;2023-09-30T07:13:37;67.30;45.83;73.95;;
81666;Laerm;71083;51.796;10.952;2023-09-30T07:16:02;67.24;40.53;76.33;;
81666;Laerm;71083;51.796;10.952;2023-09-30T07:18:28;70.77;48.19;79.30;;
81666;Laerm;71083;51.796;10.952;2023-09-30T07:20:54;69.05;50.16;82.33;;
81666;Laerm;71083;51.796;10.952;2023-09-30T07:23:19;76.31;46.83;95.91;;
81666;Laerm;71083;51.796;10.952;2023-09-30T07:25:45;87.71;55.61;103.57;;
81666;Laerm;71083;51.796;10.952;2023-09-30T07:28:10;88.23;53.06;104.01;;
81666;Laerm;71083;51.796;10.952;2023-09-30T07:30:36;81.90;54.21;102.62;;
81666;Laerm;71083;51.796;10.952;2023-09-30T07:33:02;68.55;55.11;81.79;;
81666;Laerm;71083;51.796;10.952;2023-09-30T07:35:28;69.39;62.82;80.06;;
81666;Laerm;71083;51.796;10.952;2023-09-30T07:37:53;67.26;46.92;78.31;;
81666;Laerm;71083;51.796;10.952;2023-09-30T07:40:18;68.40;46.36;77.05;;
81666;Laerm;71083;51.796;10.952;2023-09-30T07:42:44;66.92;42.78;79.02;;
81666;Laerm;71083;51.796;10.952;2023-09-30T07:45:09;68.14;57.40;74.72;;
81666;Laerm;71083;51.796;10.952;2023-09-30T07:47:36;66.12;45.26;73.45;;
81666;Laerm;71083;51.796;10.952;2023-09-30T07:50:01;68.05;48.72;74.24;;
81666;Laerm;71083;51.796;10.952;2023-09-30T07:52:34;67.93;45.76;76.40;;
81666;Laerm;71083;51.796;10.952;2023-09-30T07:55:00;71.45;52.29;85.10;;
81666;Laerm;71083;51.796;10.952;2023-09-30T07:57:25;70.88;55.87;88.74;;
81666;Laerm;71083;51.796;10.952;2023-09-30T07:59:51;67.33;47.56;78.13;;
81666;Laerm;71083;51.796;10.952;2023-09-30T08:02:16;67.90;43.90;76.30;;
81666;Laerm;71083;51.796;10.952;2023-09-30T08:04:43;69.53;48.93;78.27;;
81666;Laerm;71083;51.796;10.952;2023-09-30T08:07:08;69.16;56.80;74.40;;
81666;Laerm;71083;51.796;10.952;2023-09-30T08:09:34;68.13;52.01;75.23;;
81666;Laerm;71083;51.796;10.952;2023-09-30T08:11:59;69.81;53.77;75.56;;
81666;Laerm;71083;51.796;10.952;2023-09-30T08:14:25;66.95;50.55;74.98;;
81666;Laerm;71083;51.796;10.952;2023-09-30T08:16:51;67.75;48.93;74.42;;
81666;Laerm;71083;51.796;10.952;2023-09-30T08:19:16;69.30;52.01;78.42;;
81666;Laerm;71083;51.796;10.952;2023-09-30T08:21:41;69.37;57.29;75.61;;
81666;Laerm;71083;51.796;10.952;2023-09-30T08:24:07;67.31;44.01;80.01;;
81666;Laerm;71083;51.796;10.952;2023-09-30T08:26:33;67.26;44.72;75.87;;
81666;Laerm;71083;51.796;10.952;2023-09-30T08:29:00;67.44;44.36;74.36;;
81666;Laerm;71083;51.796;10.952;2023-09-30T08:31:25;68.39;53.96;90.91;;
81666;Laerm;71083;51.796;10.952;2023-09-30T08:33:51;70.18;47.22;78.11;;
81666;Laerm;71083;51.796;10.952;2023-09-30T08:36:16;67.88;51.99;74.00;;
81666;Laerm;71083;51.796;10.952;2023-09-30T08:38:42;69.43;54.67;75.34;;
81666;Laerm;71083;51.796;10.952;2023-09-30T08:41:07;68.39;45.95;74.66;;
81666;Laerm;71083;51.796;10.952;2023-09-30T08:43:39;68.55;59.07;74.50;;
81666;Laerm;71083;51.796;10.952;2023-09-30T08:46:05;70.22;50.12;89.35;;
81666;Laerm;71083;51.796;10.952;2023-09-30T08:48:34;67.65;53.76;74.40;;
81666;Laerm;71083;51.796;10.952;2023-09-30T08:51:00;69.10;54.84;75.14;;
81666;Laerm;71083;51.796;10.952;2023-09-30T08:53:25;68.50;47.58;73.93;;
81666;Laerm;71083;51.796;10.952;2023-09-30T08:55:54;68.38;42.42;77.07;;
81666;Laerm;71083;51.796;10.952;2023-09-30T08:58:21;70.02;47.99;76.78;;
81666;Laerm;71083;51.796;10.952;2023-09-30T09:00:48;67.66;49.07;75.09;;
81666;Laerm;71083;51.796;10.952;2023-09-30T09:03:14;69.62;48.60;75.41;;
81666;Laerm;71083;51.796;10.952;2023-09-30T09:05:39;68.34;48.21;75.05;;
81666;Laerm;71083;51.796;10.952;2023-09-30T09:08:05;68.36;54.92;75.87;;
81666;Laerm;71083;51.796;10.952;2023-09-30T09:10:31;69.10;60.01;74.25;;
81666;Laerm;71083;51.796;10.952;2023-09-30T09:12:57;66.14;47.30;72.59;;
81666;Laerm;71083;51.796;10.952;2023-09-30T09:15:23;68.90;44.05;76.47;;
81666;Laerm;71083;51.796;10.952;2023-09-30T09:17:49;68.71;53.97;81.99;;
81666;Laerm;71083;51.796;10.952;2023-09-30T09:20:16;68.43;50.72;73.59;;
81666;Laerm;71083;51.796;10.952;2023-09-30T09:22:45;67.15;49.76;74.80;;
81666;Laerm;71083;51.796;10.952;2023-09-30T09:25:11;70.31;57.08;76.85;;
81666;Laerm;71083;51.796;10.952;2023-09-30T09:27:37;67.88;47.99;78.92;;
81666;Laerm;71083;51.796;10.952;2023-09-30T09:30:18;69.03;55.65;76.48;;
81666;Laerm;71083;51.796;10.952;2023-09-30T09:35:22;69.02;45.49;74.96;;
81666;Laerm;71083;51.796;10.952;2023-09-30T09:40:22;68.97;45.34;77.00;;
81666;Laerm;71083;51.796;10.952;2023-09-30T09:42:49;67.46;45.90;77.35;;
81666;Laerm;71083;51.796;10.952;2023-09-30T09:45:18;68.81;45.88;74.14;;
81666;Laerm;71083;51.796;10.952;2023-09-30T09:47:45;69.05;52.37;75.85;;
81666;Laerm;71083;51.796;10.952;2023-09-30T09:50:12;68.85;50.12;74.62;;
81666;Laerm;71083;51.796;10.952;2023-09-30T09:52:38;67.67;49.66;74.89;;
81666;Laerm;71083;51.796;10.952;2023-09-30T09:55:04;69.15;42.77;79.34;;
81666;Laerm;71083;51.796;10.952;2023-09-30T09:57:31;68.12;48.41;74.03;;
81666;Laerm;71083;51.796;10.952;2023-09-30T09:59:57;68.05;53.13;77.22;;
81666;Laerm;71083;51.796;10.952;2023-09-30T10:02:23;66.81;47.33;73.67;;
81666;Laerm;71083;51.796;10.952;2023-09-30T10:04:49;69.95;47.74;80.97;;
81666;Laerm;71083;51.796;10.952;2023-09-30T10:07:21;67.81;43.68;75.13;;
81666;Laerm;71083;51.796;10.952;2023-09-30T10:09:48;69.69;50.61;79.83;;
81666;Laerm;71083;51.796;10.952;2023-09-30T10:12:14;69.03;49.62;80.56;;
81666;Laerm;71083;51.796;10.952;2023-09-30T10:14:40;66.87;43.89;76.45;;
81666;Laerm;71083;51.796;10.952;2023-09-30T10:17:05;76.98;48.67;97.86;;
81666;Laerm;71083;51.796;10.952;2023-09-30T10:19:31;66.12;43.21;73.29;;
81666;Laerm;71083;51.796;10.952;2023-09-30T10:24:41;67.80;48.73;74.45;;
81666;Laerm;71083;51.796;10.952;2023-09-30T10:27:27;68.51;49.03;75.16;;
81666;Laerm;71083;51.796;10.952;2023-09-30T10:29:57;69.06;51.53;81.25;;
81666;Laerm;71083;51.796;10.952;2023-09-30T10:32:23;69.18;53.06;75.49;;
81666;Laerm;71083;51.796;10.952;2023-09-30T10:34:48;68.85;50.12;73.70;;
81666;Laerm;71083;51.796;10.952;2023-09-30T10:37:19;68.61;56.20;76.55;;
81666;Laerm;71083;51.796;10.952;2023-09-30T10:39:57;67.03;47.56;75.01;;
81666;Laerm;71083;51.796;10.952;2023-09-30T10:42:43;68.64;55.88;74.53;;
81666;Laerm;71083;51.796;10.952;2023-09-30T10:45:40;67.08;45.61;74.34;;
81666;Laerm;71083;51.796;10.952;2023-09-30T10:47:55;66.72;40.49;74.89;;
81666;Laerm;71083;51.796;10.952;2023-09-30T10:53:04;67.98;51.25;78.57;;
81666;Laerm;71083;51.796;10.952;2023-09-30T10:55:31;81.65;49.87;100.82;;
81666;Laerm;71083;51.796;10.952;2023-09-30T10:57:57;68.60;56.57;76.47;;
81666;Laerm;71083;51.796;10.952;2023-09-30T11:00:22;69.48;45.13;79.49;;
81666;Laerm;71083;51.796;10.952;2023-09-30T11:02:48;65.30;45.73;73.04;;
81666;Laerm;71083;51.796;10.952;2023-09-30T11:05:14;69.40;48.51;81.65;;
81666;Laerm;71083;51.796;10.952;2023-09-30T11:07:39;68.89;51.32;76.69;;
81666;Laerm;71083;51.796;10.952;2023-09-30T11:10:07;68.60;48.28;76.63;;
81666;Laerm;71083;51.796;10.952;2023-09-30T11:12:32;69.35;49.36;86.73;;
81666;Laerm;71083;51.796;10.952;2023-09-30T11:14:58;67.64;45.57;76.17;;
81666;Laerm;71083;51.796;10.952;2023-09-30T11:17:24;68.90;53.23;75.87;;
81666;Laerm;71083;51.796;10.952;2023-09-30T11:19:49;70.45;44.01;83.67;;
81666;Laerm;71083;51.796;10.952;2023-09-30T11:22:15;68.39;51.29;75.42;;
81666;Laerm;71083;51.796;10.952;2023-09-30T11:24:41;69.13;45.07;82.15;;
81666;Laerm;71083;51.796;10.952;2023-09-30T11:27:06;69.01;44.94;78.06;;
81666;Laerm;71083;51.796;10.952;2023-09-30T11:29:32;67.39;53.86;74.51;;
81666;Laerm;71083;51.796;10.952;2023-09-30T11:31:57;67.97;54.31;75.52;;
81666;Laerm;71083;51.796;10.952;2023-09-30T11:34:33;68.59;51.75;74.85;;
81666;Laerm;71083;51.796;10.952;2023-09-30T11:36:58;67.68;53.32;73.97;;
81666;Laerm;71083;51.796;10.952;2023-09-30T11:39:26;68.74;55.01;76.25;;
81666;Laerm;71083;51.796;10.952;2023-09-30T11:41:52;67.33;54.72;73.46;;
81666;Laerm;71083;51.796;10.952;2023-09-30T11:44:18;68.06;47.43;74.55;;
81666;Laerm;71083;51.796;10.952;2023-09-30T11:46:47;68.64;52.71;76.11;;
81666;Laerm;71083;51.796;10.952;2023-09-30T11:49:23;66.93;48.62;74.38;;
81666;Laerm;71083;51.796;10.952;2023-09-30T11:51:48;69.07;56.55;77.77;;
81666;Laerm;71083;51.796;10.952;2023-09-30T11:54:14;68.46;48.08;75.44;;
81666;Laerm;71083;51.796;10.952;2023-09-30T11:56:39;67.09;41.52;78.82;;
81666;Laerm;71083;51.796;10.952;2023-09-30T11:59:04;69.66;49.20;77.64;;
81666;Laerm;71083;51.796;10.952;2023-09-30T12:01:30;67.03;49.95;73.89;;
81666;Laerm;71083;51.796;10.952;2023-09-30T12:03:57;72.11;40.11;93.18;;
81666;Laerm;71083;51.796;10.952;2023-09-30T12:06:23;68.05;53.96;77.63;;
81666;Laerm;71083;51.796;10.952;2023-09-30T12:08:48;67.14;50.54;76.01;;
81666;Laerm;71083;51.796;10.952;2023-09-30T12:11:16;67.68;47.21;74.12;;
81666;Laerm;71083;51.796;10.952;2023-09-30T12:13:42;69.21;50.10;77.07;;
81666;Laerm;71083;51.796;10.952;2023-09-30T12:16:09;67.36;48.00;74.95;;
81666;Laerm;71083;51.796;10.952;2023-09-30T12:18:34;67.21;50.98;75.54;;
81666;Laerm;71083;51.796;10.952;2023-09-30T12:21:00;67.94;49.23;74.56;;
81666;Laerm;71083;51.796;10.952;2023-09-30T12:23:25;68.53;52.42;74.65;;
81666;Laerm;71083;51.796;10.952;2023-09-30T12:25:50;71.15;55.95;87.83;;
81666;Laerm;71083;51.796;10.952;2023-09-30T12:28:16;67.88;52.29;78.72;;
81666;Laerm;71083;51.796;10.952;2023-09-30T12:30:42;68.21;53.51;75.82;;
81666;Laerm;71083;51.796;10.952;2023-09-30T12:33:08;68.35;47.28;78.69;;
81666;Laerm;71083;51.796;10.952;2023-09-30T12:35:33;67.13;42.72;74.07;;
81666;Laerm;71083;51.796;10.952;2023-09-30T12:37:59;69.17;50.84;83.54;;
81666;Laerm;71083;51.796;10.952;2023-09-30T12:40:24;73.35;51.00;90.88;;
81666;Laerm;71083;51.796;10.952;2023-09-30T12:42:50;69.75;52.49;77.82;;
81666;Laerm;71083;51.796;10.952;2023-09-30T12:45:15;69.89;54.42;82.56;;
81666;Laerm;71083;51.796;10.952;2023-09-30T12:47:42;67.90;56.38;76.72;;
81666;Laerm;71083;51.796;10.952;2023-09-30T12:50:07;69.04;54.31;76.88;;
81666;Laerm;71083;51.796;10.952;2023-09-30T12:52:34;67.73;43.74;75.52;;
81666;Laerm;71083;51.796;10.952;2023-09-30T12:54:59;68.28;49.79;73.99;;
81666;Laerm;71083;51.796;10.952;2023-09-30T12:57:25;69.40;55.32;76.63;;
81666;Laerm;71083;51.796;10.952;2023-09-30T12:59:50;69.96;48.76;78.81;;
81666;Laerm;71083;51.796;10.952;2023-09-30T13:02:16;68.82;52.74;79.88;;
81666;Laerm;71083;51.796;10.952;2023-09-30T13:04:43;68.90;46.15;75.68;;
81666;Laerm;71083;51.796;10.952;2023-09-30T13:07:09;69.17;48.29;77.58;;
81666;Laerm;71083;51.796;10.952;2023-09-30T13:09:38;67.99;53.81;74.15;;
81666;Laerm;71083;51.796;10.952;2023-09-30T13:12:04;67.85;46.70;80.05;;
81666;Laerm;71083;51.796;10.952;2023-09-30T13:14:29;69.72;51.35;77.07;;
81666;Laerm;71083;51.796;10.952;2023-09-30T13:16:55;68.24;46.36;75.51;;
81666;Laerm;71083;51.796;10.952;2023-09-30T13:19:20;69.05;53.56;74.91;;
81666;Laerm;71083;51.796;10.952;2023-09-30T13:21:49;66.89;39.54;75.47;;
81666;Laerm;71083;51.796;10.952;2023-09-30T13:24:15;68.87;48.86;73.65;;
81666;Laerm;71083;51.796;10.952;2023-09-30T13:26:40;69.06;51.76;81.44;;
81666;Laerm;71083;51.796;10.952;2023-09-30T13:29:06;67.27;48.83;76.58;;
81666;Laerm;71083;51.796;10.952;2023-09-30T13:31:34;69.29;49.27;80.50;;
81666;Laerm;71083;51.796;10.952;2023-09-30T13:34:03;69.68;45.83;77.55;;
81666;Laerm;71083;51.796;10.952;2023-09-30T13:36:28;68.56;43.02;77.72;;
81666;Laerm;71083;51.796;10.952;2023-09-30T13:38:53;66.58;50.03;76.20;;